createdAt,value
2022-08-07T00:00:03.541Z,16.43
2022-08-07T00:01:43.240Z,16.43
2022-08-07T00:02:41.129Z,16.43
2022-08-07T00:03:10.121Z,16.42
2022-08-07T00:04:03.394Z,16.42
2022-08-07T00:05:04.269Z,16.42
2022-08-07T00:06:02.610Z,16.42
2022-08-07T00:07:05.175Z,16.39
2022-08-07T00:08:10.919Z,16.41
2022-08-07T00:09:16.428Z,16.38
2022-08-07T00:10:26.598Z,16.35
2022-08-07T00:11:06.355Z,16.32
2022-08-07T00:12:02.595Z,16.29
2022-08-07T00:13:17.421Z,16.28
2022-08-07T00:14:09.900Z,16.23
2022-08-07T00:15:02.803Z,16.21
2022-08-07T00:16:03.617Z,16.20
2022-08-07T00:17:03.639Z,16.16
2022-08-07T00:18:03.547Z,16.15
2022-08-07T00:19:03.595Z,16.12
2022-08-07T00:20:09.046Z,16.10
2022-08-07T00:21:55.475Z,16.05
2022-08-07T00:22:04.366Z,16.05
2022-08-07T00:23:02.751Z,16.01
2022-08-07T00:24:10.206Z,15.97
2022-08-07T00:25:11.138Z,15.94
2022-08-07T00:26:13.047Z,15.88
2022-08-07T00:27:07.450Z,15.83
2022-08-07T00:28:04.198Z,15.80
2022-08-07T00:29:08.606Z,15.77
2022-08-07T00:30:04.135Z,15.76
2022-08-07T00:31:12.819Z,15.75
2022-08-07T00:32:03.840Z,15.73
2022-08-07T00:33:02.828Z,15.72
2022-08-07T00:34:02.215Z,15.75
2022-08-07T00:35:02.192Z,15.76
2022-08-07T00:36:02.239Z,15.82
2022-08-07T00:37:11.746Z,15.83
2022-08-07T00:38:02.998Z,15.84
2022-08-07T00:39:03.507Z,15.90
2022-08-07T00:40:03.287Z,15.94
2022-08-07T00:41:02.102Z,15.97
2022-08-07T00:42:08.919Z,16.00
2022-08-07T00:43:02.416Z,16.02
2022-08-07T00:44:02.976Z,16.01
2022-08-07T00:45:02.185Z,16.04
2022-08-07T00:46:03.553Z,16.04
2022-08-07T00:48:05.156Z,16.05
2022-08-07T00:48:11.121Z,16.04
2022-08-07T00:49:03.686Z,16.05
2022-08-07T00:50:19.249Z,16.04
2022-08-07T00:51:03.998Z,16.04
2022-08-07T00:52:02.324Z,16.04
2022-08-07T00:53:02.243Z,16.02
2022-08-07T00:54:08.447Z,16.02
2022-08-07T00:55:04.687Z,16.02
2022-08-07T00:56:04.459Z,16.02
2022-08-07T00:57:03.510Z,16.02
2022-08-07T00:58:02.667Z,16.01
2022-08-07T00:59:02.064Z,15.98
2022-08-07T01:00:08.521Z,15.98
2022-08-07T01:01:03.107Z,15.94
2022-08-07T01:02:01.913Z,15.92
2022-08-07T01:03:02.910Z,15.88
2022-08-07T01:04:08.514Z,15.86
2022-08-07T01:05:19.337Z,15.83
2022-08-07T01:06:04.425Z,15.79
2022-08-07T01:07:01.996Z,15.73
2022-08-07T01:08:02.888Z,15.67
2022-08-07T01:09:02.783Z,15.64
2022-08-07T01:10:11.243Z,15.61
2022-08-07T01:12:04.769Z,15.57
2022-08-07T01:12:10.212Z,15.52
2022-08-07T01:13:03.539Z,15.49
2022-08-07T01:14:03.039Z,15.44
2022-08-07T01:15:35.896Z,15.44
2022-08-07T01:16:34.184Z,15.40
2022-08-07T01:17:32.874Z,15.36
2022-08-07T01:18:32.512Z,15.33
2022-08-07T01:19:32.462Z,15.27
2022-08-07T01:20:42.985Z,15.27
2022-08-07T01:21:33.297Z,15.22
2022-08-07T01:22:31.919Z,15.19
2022-08-07T01:23:40.089Z,15.15
2022-08-07T01:24:32.694Z,15.11
2022-08-07T01:25:53.515Z,15.06
2022-08-07T01:26:34.249Z,15.04
2022-08-07T01:27:32.322Z,15.02
2022-08-07T01:28:32.330Z,14.99
2022-08-07T01:29:33.830Z,14.94
2022-08-07T01:30:31.588Z,14.94
2022-08-07T01:31:42.589Z,14.92
2022-08-07T01:32:33.100Z,14.91
2022-08-07T01:33:55.076Z,14.89
2022-08-07T01:34:33.707Z,14.88
2022-08-07T01:35:52.945Z,14.85
2022-08-07T01:36:40.697Z,14.82
2022-08-07T01:37:33.810Z,14.84
2022-08-07T01:38:31.894Z,14.84
2022-08-07T01:39:40.803Z,14.84
2022-08-07T01:40:33.238Z,14.84
2022-08-07T01:41:32.607Z,14.84
2022-08-07T01:42:57.396Z,14.85
2022-08-07T01:43:34.513Z,14.86
2022-08-07T01:44:32.872Z,14.86
2022-08-07T01:45:37.233Z,14.85
2022-08-07T01:46:33.772Z,14.84
2022-08-07T01:48:19.277Z,14.82
2022-08-07T01:48:41.116Z,14.81
2022-08-07T01:49:31.885Z,14.78
2022-08-07T01:50:32.449Z,14.78
2022-08-07T01:52:02.471Z,14.78
2022-08-07T01:52:34.510Z,14.77
2022-08-07T01:54:09.086Z,14.77
2022-08-07T01:54:39.369Z,14.73
2022-08-07T01:55:33.615Z,14.77
2022-08-07T01:56:36.351Z,14.72
2022-08-07T01:58:00.997Z,14.70
2022-08-07T01:58:34.175Z,14.70
2022-08-07T01:59:37.707Z,14.70
2022-08-07T02:00:32.660Z,14.69
2022-08-07T02:02:00.013Z,14.68
2022-08-07T02:03:11.918Z,14.66
2022-08-07T02:03:42.904Z,14.65
2022-08-07T02:04:39.919Z,14.63
2022-08-07T02:05:48.169Z,14.62
2022-08-07T02:06:32.626Z,14.58
2022-08-07T02:07:44.960Z,14.54
2022-08-07T02:08:32.780Z,14.51
2022-08-07T02:09:52.806Z,14.51
2022-08-07T02:10:42.169Z,14.51
2022-08-07T02:12:04.708Z,14.48
2022-08-07T02:12:33.970Z,14.47
2022-08-07T02:13:57.917Z,14.47
2022-08-07T02:14:36.404Z,14.48
2022-08-07T02:15:34.130Z,14.47
2022-08-07T02:16:38.362Z,14.45
2022-08-07T02:17:34.120Z,14.43
2022-08-07T02:18:30.971Z,14.41
2022-08-07T02:20:06.737Z,14.43
2022-08-07T02:20:31.952Z,14.41
2022-08-07T02:21:56.090Z,14.41
2022-08-07T02:22:33.420Z,14.40
2022-08-07T02:23:35.779Z,14.36
2022-08-07T02:24:31.925Z,14.35
2022-08-07T02:26:11.438Z,14.33
2022-08-07T02:26:34.495Z,14.30
2022-08-07T02:27:41.163Z,14.29
2022-08-07T02:28:32.146Z,14.29
2022-08-07T02:29:31.263Z,14.29
2022-08-07T02:30:32.167Z,14.26
2022-08-07T02:31:30.794Z,14.25
2022-08-07T02:32:39.541Z,14.25
2022-08-07T02:33:42.027Z,14.22
2022-08-07T02:34:32.476Z,14.20
2022-08-07T02:36:30.865Z,14.18
2022-08-07T02:36:32.906Z,14.15
2022-08-07T02:37:34.276Z,14.15
2022-08-07T02:38:38.500Z,14.12
2022-08-07T02:39:42.586Z,14.12
2022-08-07T02:40:35.318Z,14.11
2022-08-07T02:41:33.478Z,14.08
2022-08-07T02:42:32.377Z,14.10
2022-08-07T02:43:39.462Z,14.07
2022-08-07T02:44:48.361Z,14.07
2022-08-07T02:46:00.918Z,14.07
2022-08-07T02:46:32.594Z,14.07
2022-08-07T02:47:45.194Z,14.07
2022-08-07T02:48:38.498Z,14.08
2022-08-07T02:49:58.312Z,14.08
2022-08-07T02:50:32.606Z,14.10
2022-08-07T02:51:42.536Z,14.10
2022-08-07T02:52:32.930Z,14.10
2022-08-07T02:53:30.473Z,14.08
2022-08-07T02:54:30.735Z,14.08
2022-08-07T02:56:03.472Z,14.08
2022-08-07T02:56:33.161Z,14.08
2022-08-07T02:57:34.094Z,14.07
2022-08-07T02:58:33.257Z,14.05
2022-08-07T02:59:30.382Z,14.04
2022-08-07T03:00:39.118Z,14.00
2022-08-07T03:01:36.304Z,14.00
2022-08-07T03:02:32.887Z,14.00
2022-08-07T03:03:50.192Z,13.96
2022-08-07T03:04:32.285Z,13.97
2022-08-07T03:05:35.718Z,13.95
2022-08-07T03:06:39.247Z,13.93
2022-08-07T03:08:05.239Z,13.93
2022-08-07T03:08:31.381Z,13.92
2022-08-07T03:09:42.448Z,13.92
2022-08-07T03:10:32.098Z,13.92
2022-08-07T03:11:32.638Z,13.92
2022-08-07T03:12:36.613Z,13.92
2022-08-07T03:13:30.610Z,13.92
2022-08-07T03:14:31.695Z,13.92
2022-08-07T03:15:55.774Z,13.93
2022-08-07T03:16:31.252Z,13.92
2022-08-07T03:17:52.785Z,13.93
2022-08-07T03:18:34.785Z,13.92
2022-08-07T03:19:36.784Z,13.92
2022-08-07T03:20:31.985Z,13.89
2022-08-07T03:21:33.153Z,13.89
2022-08-07T03:22:36.629Z,13.90
2022-08-07T03:23:33.619Z,13.89
2022-08-07T03:24:32.283Z,13.89
2022-08-07T03:25:40.483Z,13.89
2022-08-07T03:26:31.685Z,13.89
2022-08-07T03:27:59.574Z,13.87
2022-08-07T03:28:39.527Z,13.85
2022-08-07T03:29:36.629Z,13.85
2022-08-07T03:30:30.221Z,13.83
2022-08-07T03:31:43.489Z,13.81
2022-08-07T03:32:32.769Z,13.81
2022-08-07T03:33:40.049Z,13.79
2022-08-07T03:34:30.953Z,13.78
2022-08-07T03:35:43.610Z,13.81
2022-08-07T03:36:31.579Z,13.78
2022-08-07T03:37:32.712Z,13.78
2022-08-07T03:38:38.713Z,13.78
2022-08-07T03:40:00.045Z,13.78
2022-08-07T03:40:36.154Z,13.78
2022-08-07T03:41:42.165Z,13.77
2022-08-07T03:42:37.663Z,13.77
2022-08-07T03:43:32.439Z,13.78
2022-08-07T03:44:36.141Z,13.79
2022-08-07T03:45:31.510Z,13.81
2022-08-07T03:46:29.855Z,13.83
2022-08-07T03:47:47.773Z,13.85
2022-08-07T03:48:31.281Z,13.85
2022-08-07T03:49:36.392Z,13.87
2022-08-07T03:50:30.031Z,13.89
2022-08-07T03:51:30.738Z,13.90
2022-08-07T03:52:30.820Z,13.90
2022-08-07T03:54:01.952Z,13.92
2022-08-07T03:54:54.568Z,13.92
2022-08-07T03:55:57.467Z,13.92
2022-08-07T03:56:33.472Z,13.90
2022-08-07T03:58:34.343Z,13.92
2022-08-07T03:59:04.868Z,13.90
2022-08-07T03:59:31.559Z,13.89
2022-08-07T04:00:37.285Z,13.87
2022-08-07T04:01:32.258Z,13.89
2022-08-07T04:02:29.646Z,13.89
2022-08-07T04:03:29.831Z,13.90
2022-08-07T04:04:32.656Z,13.90
2022-08-07T04:05:40.272Z,13.92
2022-08-07T04:06:41.525Z,13.92
2022-08-07T04:07:36.277Z,13.92
2022-08-07T04:08:32.139Z,13.90
2022-08-07T04:09:45.160Z,13.89
2022-08-07T04:10:32.136Z,13.89
2022-08-07T04:12:24.944Z,13.89
2022-08-07T04:12:36.825Z,13.89
2022-08-07T04:14:10.900Z,13.90
2022-08-07T04:14:37.643Z,13.90
2022-08-07T04:15:31.361Z,13.89
2022-08-07T04:16:31.337Z,13.92
2022-08-07T04:18:19.664Z,13.93
2022-08-07T04:18:56.633Z,13.96
2022-08-07T04:19:50.969Z,13.99
2022-08-07T04:20:31.620Z,14.04
2022-08-07T04:21:35.730Z,14.07
2022-08-07T04:22:35.779Z,14.10
2022-08-07T04:23:43.410Z,14.11
2022-08-07T04:24:34.292Z,14.14
2022-08-07T04:25:35.893Z,14.17
2022-08-07T04:26:31.091Z,14.18
2022-08-07T04:27:36.249Z,14.20
2022-08-07T04:28:37.960Z,14.23
2022-08-07T04:29:30.475Z,14.23
2022-08-07T04:30:35.848Z,14.25
2022-08-07T04:31:38.863Z,14.25
2022-08-07T04:32:34.568Z,14.26
2022-08-07T04:33:35.540Z,14.26
2022-08-07T04:34:33.237Z,14.28
2022-08-07T04:35:35.261Z,14.30
2022-08-07T04:36:30.755Z,14.35
2022-08-07T04:37:29.208Z,14.37
2022-08-07T04:38:30.851Z,14.43
2022-08-07T04:39:35.590Z,14.48
2022-08-07T04:40:30.008Z,14.53
2022-08-07T04:41:29.099Z,14.55
2022-08-07T04:42:30.685Z,14.60
2022-08-07T04:44:11.301Z,14.65
2022-08-07T04:44:36.289Z,14.66
2022-08-07T04:45:57.234Z,14.69
2022-08-07T04:46:34.669Z,14.70
2022-08-07T04:48:01.600Z,14.69
2022-08-07T04:48:31.774Z,14.73
2022-08-07T04:49:29.276Z,14.77
2022-08-07T04:50:36.992Z,14.78
2022-08-07T04:51:28.974Z,14.79
2022-08-07T04:52:29.918Z,14.82
2022-08-07T04:54:01.866Z,14.84
2022-08-07T04:54:30.425Z,14.85
2022-08-07T04:58:13.248Z,14.88
2022-08-07T04:58:15.845Z,14.86
2022-08-07T04:58:27.513Z,14.89
2022-08-07T04:58:49.587Z,14.92
2022-08-07T05:00:14.506Z,14.96
2022-08-07T05:00:30.811Z,15.00
2022-08-07T05:01:29.925Z,15.03
2022-08-07T05:02:35.071Z,15.03
2022-08-07T05:04:01.102Z,15.06
2022-08-07T05:04:30.860Z,15.10
2022-08-07T05:05:52.764Z,15.11
2022-08-07T05:06:29.750Z,15.17
2022-08-07T05:07:48.248Z,15.24
2022-08-07T05:08:59.915Z,15.25
2022-08-07T05:09:45.430Z,15.28
2022-08-07T05:10:36.530Z,15.28
2022-08-07T05:11:57.923Z,15.31
2022-08-07T05:12:30.518Z,15.35
2022-08-07T05:14:53.516Z,15.39
2022-08-07T05:14:54.299Z,15.35
2022-08-07T05:15:29.959Z,15.42
2022-08-07T05:16:29.592Z,15.42
2022-08-07T05:17:50.793Z,15.44
2022-08-07T05:18:29.797Z,15.46
2022-08-07T05:19:44.726Z,15.47
2022-08-07T05:20:34.144Z,15.49
2022-08-07T05:22:00.805Z,15.52
2022-08-07T05:22:30.820Z,15.52
2022-08-07T05:23:30.061Z,15.54
2022-08-07T05:24:30.401Z,15.55
2022-08-07T05:25:54.424Z,15.58
2022-08-07T05:26:30.262Z,15.61
2022-08-07T05:28:02.910Z,15.64
2022-08-07T05:28:29.558Z,15.65
2022-08-07T05:29:38.831Z,15.65
2022-08-07T05:30:33.031Z,15.68
2022-08-07T05:31:37.693Z,15.72
2022-08-07T05:32:28.481Z,15.75
2022-08-07T05:33:28.450Z,15.77
2022-08-07T05:34:28.401Z,15.79
2022-08-07T05:35:33.572Z,15.82
2022-08-07T05:36:39.165Z,15.83
2022-08-07T05:37:40.897Z,15.84
2022-08-07T05:39:00.908Z,15.86
2022-08-07T05:40:13.674Z,15.86
2022-08-07T05:40:29.326Z,15.88
2022-08-07T05:42:01.689Z,15.86
2022-08-07T05:42:36.845Z,15.88
2022-08-07T05:43:50.071Z,15.90
2022-08-07T05:44:30.483Z,15.91
2022-08-07T05:45:47.633Z,15.92
2022-08-07T05:46:29.768Z,15.94
2022-08-07T05:47:38.483Z,15.97
2022-08-07T05:48:29.173Z,15.98
2022-08-07T05:49:40.552Z,15.98
2022-08-07T05:50:29.785Z,16.02
2022-08-07T05:51:31.561Z,16.08
2022-08-07T05:52:29.918Z,16.12
2022-08-07T05:54:09.541Z,16.15
2022-08-07T05:54:31.026Z,16.20
2022-08-07T05:56:03.366Z,16.20
2022-08-07T05:56:30.137Z,16.23
2022-08-07T05:57:30.128Z,16.24
2022-08-07T05:58:37.064Z,16.28
2022-08-07T05:59:28.311Z,16.29
2022-08-07T06:00:29.590Z,16.32
2022-08-07T06:01:35.831Z,16.35
2022-08-07T06:02:30.677Z,16.39
2022-08-07T06:03:34.256Z,16.42
2022-08-07T06:04:36.371Z,16.43
2022-08-07T06:05:28.420Z,16.50
2022-08-07T06:06:30.026Z,16.51
2022-08-07T06:08:13.438Z,16.53
2022-08-07T06:08:30.631Z,16.56
2022-08-07T06:10:04.457Z,16.58
2022-08-07T06:10:36.212Z,16.61
2022-08-07T06:11:27.969Z,16.64
2022-08-07T06:12:33.154Z,16.66
2022-08-07T06:14:10.328Z,16.71
2022-08-07T06:14:30.429Z,16.71
2022-08-07T06:15:39.479Z,16.75
2022-08-07T06:16:35.676Z,16.76
2022-08-07T06:17:32.166Z,16.78
2022-08-07T06:18:29.321Z,16.84
2022-08-07T06:19:58.338Z,16.86
2022-08-07T06:20:49.350Z,16.87
2022-08-07T06:22:16.361Z,16.89
2022-08-07T06:22:39.099Z,16.90
2022-08-07T06:24:32.562Z,16.91
2022-08-07T06:24:46.080Z,16.97
2022-08-07T06:25:28.863Z,16.97
2022-08-07T06:26:29.550Z,17.01
2022-08-07T06:27:54.467Z,17.05
2022-08-07T06:28:29.649Z,17.06
2022-08-07T06:29:27.978Z,17.11
2022-08-07T06:30:36.133Z,17.14
2022-08-07T06:31:46.774Z,17.19
2022-08-07T06:32:29.296Z,17.22
2022-08-07T06:33:35.157Z,17.24
2022-08-07T06:34:29.800Z,17.30
2022-08-07T06:35:38.970Z,17.39
2022-08-07T06:36:35.596Z,17.45
2022-08-07T06:37:44.123Z,17.48
2022-08-07T06:38:36.489Z,17.49
2022-08-07T06:40:13.135Z,17.51
2022-08-07T06:40:34.041Z,17.52
2022-08-07T06:41:47.639Z,17.52
2022-08-07T06:42:34.933Z,17.52
2022-08-07T06:43:39.619Z,17.54
2022-08-07T06:44:36.806Z,17.59
2022-08-07T06:45:27.534Z,17.60
2022-08-07T06:46:35.089Z,17.63
2022-08-07T06:47:38.674Z,17.68
2022-08-07T06:48:29.155Z,17.76
2022-08-07T06:49:27.362Z,17.79
2022-08-07T06:50:36.093Z,17.80
2022-08-07T06:51:33.398Z,17.80
2022-08-07T06:52:31.884Z,17.83
2022-08-07T06:55:27.172Z,17.87
2022-08-07T06:55:31.952Z,17.89
2022-08-07T06:55:53.583Z,17.92
2022-08-07T06:56:35.603Z,17.94
2022-08-07T06:57:43.446Z,17.95
2022-08-07T06:58:28.955Z,17.97
2022-08-07T07:00:12.602Z,18.01
2022-08-07T07:00:34.605Z,18.03
2022-08-07T07:01:33.150Z,18.05
2022-08-07T07:02:48.924Z,18.08
2022-08-07T07:03:48.942Z,18.08
2022-08-07T07:04:32.996Z,18.10
2022-08-07T07:06:03.376Z,18.11
2022-08-07T07:06:30.465Z,18.13
2022-08-07T07:07:59.670Z,18.13
2022-08-07T07:08:34.927Z,18.15
2022-08-07T07:09:30.934Z,18.15
2022-08-07T07:10:27.387Z,18.16
2022-08-07T07:12:10.059Z,18.22
2022-08-07T07:12:33.408Z,18.25
2022-08-07T07:13:56.396Z,18.28
2022-08-07T07:14:30.378Z,18.31
2022-08-07T07:15:32.528Z,18.31
2022-08-07T07:16:30.264Z,18.29
2022-08-07T07:17:28.863Z,18.29
2022-08-07T07:18:46.855Z,18.31
2022-08-07T07:19:56.893Z,18.38
2022-08-07T07:20:28.544Z,18.44
2022-08-07T07:21:40.398Z,18.47
2022-08-07T07:22:35.837Z,18.50
2022-08-07T07:24:08.734Z,18.55
2022-08-07T07:24:34.236Z,18.59
2022-08-07T07:26:33.964Z,18.68
2022-08-07T07:26:34.426Z,18.62
2022-08-07T07:27:35.792Z,18.71
2022-08-07T07:28:42.261Z,18.71
2022-08-07T07:29:56.636Z,18.74
2022-08-07T07:30:38.091Z,18.74
2022-08-07T07:31:30.467Z,18.74
2022-08-07T07:32:28.474Z,18.75
2022-08-07T07:33:26.820Z,18.78
2022-08-07T07:34:33.572Z,18.78
2022-08-07T07:35:27.859Z,18.80
2022-08-07T07:36:32.894Z,18.81
2022-08-07T07:37:47.140Z,18.84
2022-08-07T07:38:27.884Z,18.89
2022-08-07T07:39:35.857Z,18.92
2022-08-07T07:40:28.631Z,18.93
2022-08-07T07:41:50.463Z,18.96
2022-08-07T07:42:32.513Z,18.96
2022-08-07T07:43:48.162Z,18.99
2022-08-07T07:44:34.322Z,19.02
2022-08-07T07:46:39.754Z,19.04
2022-08-07T07:46:39.960Z,19.04
2022-08-07T07:47:28.727Z,19.04
2022-08-07T07:48:35.741Z,19.08
2022-08-07T07:50:35.770Z,19.08
2022-08-07T07:50:40.145Z,19.08
2022-08-07T07:51:27.119Z,19.11
2022-08-07T07:52:27.876Z,19.11
2022-08-07T07:53:27.945Z,19.15
2022-08-07T07:54:29.186Z,19.18
2022-08-07T07:55:27.736Z,19.18
2022-08-07T07:56:35.619Z,19.19
2022-08-07T07:57:52.191Z,19.21
2022-08-07T07:58:27.962Z,19.21
2022-08-07T07:59:51.628Z,19.19
2022-08-07T08:00:29.643Z,19.22
2022-08-07T08:02:03.270Z,19.26
2022-08-07T08:03:16.678Z,19.31
2022-08-07T08:04:12.529Z,19.31
2022-08-07T08:05:14.155Z,19.34
2022-08-07T08:06:13.131Z,19.37
2022-08-07T08:07:19.996Z,19.40
2022-08-07T08:08:32.311Z,19.44
2022-08-07T08:09:12.494Z,19.44
2022-08-07T08:10:14.935Z,19.44
2022-08-07T08:11:16.317Z,19.41
2022-08-07T08:12:12.786Z,19.39
2022-08-07T08:13:18.952Z,19.41
2022-08-07T08:14:12.457Z,19.44
2022-08-07T08:15:11.147Z,19.44
2022-08-07T08:16:12.683Z,19.41
2022-08-07T08:17:32.462Z,19.40
2022-08-07T08:18:55.859Z,19.40
2022-08-07T08:20:17.859Z,19.36
2022-08-07T08:20:58.005Z,19.34
2022-08-07T08:22:03.353Z,19.34
2022-08-07T08:22:57.363Z,19.36
2022-08-07T08:24:02.091Z,19.36
2022-08-07T08:25:04.480Z,19.41
2022-08-07T08:25:56.826Z,19.47
2022-08-07T08:26:56.127Z,19.48
2022-08-07T08:27:56.226Z,19.52
2022-08-07T08:28:55.834Z,19.54
2022-08-07T08:30:03.815Z,19.55
2022-08-07T08:30:56.141Z,19.58
2022-08-07T08:32:04.764Z,19.62
2022-08-07T08:32:56.741Z,19.62
2022-08-07T08:33:57.843Z,19.62
2022-08-07T08:34:55.913Z,19.64
2022-08-07T08:36:02.159Z,19.66
2022-08-07T08:36:57.591Z,19.71
2022-08-07T08:38:00.448Z,19.77
2022-08-07T08:38:57.398Z,19.81
2022-08-07T08:39:58.722Z,19.89
2022-08-07T08:40:55.608Z,19.96
2022-08-07T08:42:02.032Z,20.03
2022-08-07T08:42:55.772Z,20.09
2022-08-07T08:43:59.302Z,20.13
2022-08-07T08:44:55.902Z,20.16
2022-08-07T08:46:00.633Z,20.14
2022-08-07T08:47:02.793Z,20.13
2022-08-07T08:47:56.636Z,20.13
2022-08-07T08:48:56.495Z,20.16
2022-08-07T08:50:05.178Z,20.11
2022-08-07T08:50:58.000Z,20.10
2022-08-07T08:52:14.128Z,20.09
2022-08-07T08:52:57.012Z,20.13
2022-08-07T08:53:56.600Z,20.19
2022-08-07T08:54:55.471Z,20.28
2022-08-07T08:55:58.320Z,20.41
2022-08-07T08:56:55.399Z,20.55
2022-08-07T08:58:02.752Z,20.59
2022-08-07T08:58:56.725Z,20.60
2022-08-07T08:59:57.180Z,20.66
2022-08-07T09:00:56.449Z,20.67
2022-08-07T09:01:59.581Z,20.72
2022-08-07T09:02:57.956Z,20.74
2022-08-07T09:04:03.041Z,20.75
2022-08-07T09:04:55.779Z,20.74
2022-08-07T09:05:55.550Z,20.74
2022-08-07T09:06:55.548Z,20.70
2022-08-07T09:08:02.581Z,20.74
2022-08-07T09:09:02.195Z,20.75
2022-08-07T09:09:57.893Z,20.78
2022-08-07T09:10:56.406Z,20.78
2022-08-07T09:12:02.791Z,20.80
2022-08-07T09:12:56.403Z,20.85
2022-08-07T09:14:01.881Z,20.93
2022-08-07T09:14:58.808Z,20.99
2022-08-07T09:16:24.390Z,21.02
2022-08-07T09:16:57.184Z,21.03
2022-08-07T09:17:59.376Z,20.96
2022-08-07T09:19:03.578Z,20.96
2022-08-07T09:20:01.824Z,20.93
2022-08-07T09:20:58.404Z,20.90
2022-08-07T09:22:22.374Z,20.92
2022-08-07T09:24:30.451Z,21.00
2022-08-07T09:24:31.056Z,20.96
2022-08-07T09:24:59.688Z,21.09
2022-08-07T09:25:56.079Z,21.14
2022-08-07T09:27:04.576Z,21.20
2022-08-07T09:28:01.306Z,21.29
2022-08-07T09:30:01.293Z,21.37
2022-08-07T09:30:06.433Z,21.45
2022-08-07T09:30:57.616Z,21.48
2022-08-07T09:31:56.235Z,21.48
2022-08-07T09:32:55.090Z,21.45
2022-08-07T09:33:57.910Z,21.39
2022-08-07T09:35:04.821Z,21.33
2022-08-07T09:36:05.103Z,21.27
2022-08-07T09:36:57.765Z,21.29
2022-08-07T09:37:55.013Z,21.27
2022-08-07T09:38:56.794Z,21.29
2022-08-07T09:39:57.976Z,21.32
2022-08-07T09:41:01.489Z,21.30
2022-08-07T09:42:05.891Z,21.36
2022-08-07T09:42:56.936Z,21.37
2022-08-07T09:44:05.569Z,21.43
2022-08-07T09:47:24.544Z,21.39
2022-08-07T09:47:37.257Z,21.42
2022-08-07T09:47:50.935Z,21.40
2022-08-07T09:48:02.898Z,21.35
2022-08-07T09:50:00.887Z,21.39
2022-08-07T09:50:01.045Z,21.39
2022-08-07T09:51:03.842Z,21.33
2022-08-07T09:52:16.211Z,21.24
2022-08-07T09:52:56.645Z,21.22
2022-08-07T09:53:59.260Z,21.17
2022-08-07T09:55:02.593Z,21.17
2022-08-07T09:56:03.534Z,21.18
2022-08-07T09:57:04.235Z,21.17
2022-08-07T09:57:55.464Z,21.18
2022-08-07T09:58:55.911Z,21.20
2022-08-07T10:00:00.564Z,21.22
2022-08-07T10:00:57.495Z,21.30
2022-08-07T10:02:02.477Z,21.33
2022-08-07T10:02:56.340Z,21.37
2022-08-07T10:04:06.048Z,21.45
2022-08-07T10:04:57.287Z,21.52
2022-08-07T10:06:00.855Z,21.60
2022-08-07T10:06:57.160Z,21.64
2022-08-07T10:08:01.506Z,21.70
2022-08-07T10:08:55.225Z,21.76
2022-08-07T10:10:00.863Z,21.80
2022-08-07T10:11:59.527Z,21.83
2022-08-07T10:12:03.308Z,21.88
2022-08-07T10:13:04.257Z,21.91
2022-08-07T10:14:01.878Z,21.95
2022-08-07T10:14:56.934Z,21.98
2022-08-07T10:15:54.620Z,22.02
2022-08-07T10:16:55.314Z,22.10
2022-08-07T10:18:02.803Z,22.11
2022-08-07T10:18:54.419Z,22.15
2022-08-07T10:19:54.374Z,22.17
2022-08-07T10:20:55.542Z,22.22
2022-08-07T10:22:14.399Z,22.22
2022-08-07T10:23:02.031Z,22.22
2022-08-07T10:24:04.877Z,22.25
2022-08-07T10:24:57.322Z,22.18
2022-08-07T10:25:54.506Z,22.14
2022-08-07T10:26:54.468Z,22.10
2022-08-07T10:27:55.984Z,22.04
2022-08-07T10:29:01.551Z,21.98
2022-08-07T10:29:54.501Z,21.91
2022-08-07T10:30:54.244Z,21.82
2022-08-07T10:31:54.197Z,21.76
2022-08-07T10:32:54.510Z,21.73
2022-08-07T10:34:06.525Z,21.72
2022-08-07T10:34:55.970Z,21.64
2022-08-07T10:35:57.188Z,21.52
2022-08-07T10:36:55.944Z,21.48
2022-08-07T10:38:15.533Z,21.45
2022-08-07T10:39:02.504Z,21.50
2022-08-07T10:40:02.578Z,21.50
2022-08-07T10:40:56.514Z,21.52
2022-08-07T10:42:00.456Z,21.55
2022-08-07T10:42:56.742Z,21.52
2022-08-07T10:43:55.078Z,21.52
2022-08-07T10:45:02.101Z,21.55
2022-08-07T10:45:57.996Z,21.57
2022-08-07T10:46:54.993Z,21.58
2022-08-07T10:47:56.674Z,21.60
2022-08-07T10:48:56.477Z,21.58
2022-08-07T10:50:00.474Z,21.61
2022-08-07T10:50:55.203Z,21.69
2022-08-07T10:52:01.710Z,21.72
2022-08-07T10:52:57.856Z,21.76
2022-08-07T10:53:58.505Z,21.80
2022-08-07T10:55:07.905Z,21.88
2022-08-07T10:55:56.296Z,21.92
2022-08-07T10:56:56.308Z,21.98
2022-08-07T10:57:56.351Z,22.00
2022-08-07T10:58:59.530Z,22.06
2022-08-07T11:00:01.945Z,22.07
2022-08-07T11:00:56.363Z,22.08
2022-08-07T11:02:05.529Z,22.11
2022-08-07T11:02:55.374Z,22.14
2022-08-07T11:04:05.410Z,22.17
2022-08-07T11:05:07.317Z,22.20
2022-08-07T11:05:55.466Z,22.25
2022-08-07T11:06:54.743Z,22.28
2022-08-07T11:07:58.604Z,22.32
2022-08-07T11:08:55.540Z,22.38
2022-08-07T11:10:09.922Z,22.43
2022-08-07T11:10:59.845Z,22.51
2022-08-07T11:11:53.967Z,22.55
2022-08-07T11:13:02.332Z,22.60
2022-08-07T11:14:43.717Z,22.68
2022-08-07T11:14:57.420Z,22.78
2022-08-07T11:16:01.440Z,22.83
2022-08-07T11:16:59.383Z,22.93
2022-08-07T11:17:55.080Z,23.02
2022-08-07T11:19:00.031Z,23.12
2022-08-07T11:19:54.509Z,23.20
2022-08-07T11:20:59.899Z,23.31
2022-08-07T11:21:54.599Z,23.41
2022-08-07T11:22:54.525Z,23.48
2022-08-07T11:23:53.783Z,23.47
2022-08-07T11:24:54.304Z,23.36
2022-08-07T11:26:06.330Z,23.27
2022-08-07T11:26:55.923Z,23.18
2022-08-07T11:28:02.628Z,23.20
2022-08-07T11:28:56.017Z,23.31
2022-08-07T11:30:10.425Z,23.40
2022-08-07T11:30:55.925Z,23.48
2022-08-07T11:32:00.078Z,23.56
2022-08-07T11:32:54.592Z,23.66
2022-08-07T11:33:59.634Z,23.80
2022-08-07T11:34:54.945Z,23.86
2022-08-07T11:35:59.713Z,23.91
2022-08-07T11:36:56.441Z,24.01
2022-08-07T11:38:10.419Z,23.99
2022-08-07T11:38:54.795Z,23.84
2022-08-07T11:39:59.220Z,23.66
2022-08-07T11:40:55.254Z,23.50
2022-08-07T11:42:00.251Z,23.43
2022-08-07T11:42:55.027Z,23.48
2022-08-07T11:44:11.001Z,23.56
2022-08-07T11:44:57.842Z,23.73
2022-08-07T11:45:54.290Z,23.80
2022-08-07T11:46:53.664Z,23.86
2022-08-07T11:47:56.417Z,23.96
2022-08-07T11:49:50.855Z,24.02
2022-08-07T11:50:30.569Z,24.02
2022-08-07T11:50:57.617Z,23.99
2022-08-07T11:51:54.292Z,23.95
2022-08-07T11:52:53.607Z,23.96
2022-08-07T11:54:01.399Z,24.02
2022-08-07T11:54:55.615Z,24.13
2022-08-07T11:56:15.682Z,24.26
2022-08-07T11:56:56.242Z,24.39
2022-08-07T11:58:00.717Z,24.51
2022-08-07T11:58:55.941Z,24.60
2022-08-07T12:00:11.593Z,24.65
2022-08-07T12:01:05.043Z,24.73
2022-08-07T12:02:00.646Z,24.77
2022-08-07T12:02:55.981Z,24.76
2022-08-07T12:03:54.133Z,24.78
2022-08-07T12:04:54.026Z,24.77
2022-08-07T12:05:53.961Z,24.80
2022-08-07T12:07:07.938Z,24.77
2022-08-07T12:07:59.595Z,24.73
2022-08-07T12:08:55.450Z,24.73
2022-08-07T12:09:55.101Z,24.74
2022-08-07T12:11:08.040Z,24.80
2022-08-07T12:12:10.725Z,24.78
2022-08-07T12:12:55.788Z,24.58
2022-08-07T12:13:53.310Z,24.33
2022-08-07T12:14:56.398Z,24.24
2022-08-07T12:16:06.068Z,24.05
2022-08-07T12:17:24.699Z,24.10
2022-08-07T12:18:29.842Z,24.10
2022-08-07T12:19:25.731Z,24.03
2022-08-07T12:20:30.067Z,23.96
2022-08-07T12:21:55.484Z,23.88
2022-08-07T12:22:38.592Z,23.84
2022-08-07T12:24:06.176Z,23.80
2022-08-07T12:24:52.498Z,23.81
2022-08-07T12:26:03.250Z,23.73
2022-08-07T12:26:29.996Z,23.62
2022-08-07T12:27:28.174Z,23.61
2022-08-07T12:28:31.934Z,23.65
2022-08-07T12:29:37.729Z,23.66
2022-08-07T12:30:27.136Z,23.55
2022-08-07T12:31:24.947Z,23.46
2022-08-07T12:32:25.576Z,23.37
2022-08-07T12:33:30.720Z,23.32
2022-08-07T12:34:33.166Z,23.28
2022-08-07T12:35:25.856Z,23.31
2022-08-07T12:36:33.298Z,23.24
2022-08-07T12:37:27.813Z,23.17
2022-08-07T12:38:38.605Z,23.20
2022-08-07T12:39:42.969Z,23.25
2022-08-07T12:40:48.942Z,23.31
2022-08-07T12:41:42.652Z,23.36
2022-08-07T12:42:27.681Z,23.39
2022-08-07T12:44:03.151Z,23.46
2022-08-07T12:44:33.098Z,23.51
2022-08-07T12:45:30.947Z,23.58
2022-08-07T12:46:26.434Z,23.59
2022-08-07T12:47:26.936Z,23.61
2022-08-07T12:48:27.967Z,23.63
2022-08-07T12:49:44.709Z,23.46
2022-08-07T12:50:39.192Z,23.44
2022-08-07T12:51:51.428Z,23.43
2022-08-07T12:52:25.310Z,23.47
2022-08-07T12:53:25.107Z,23.50
2022-08-07T12:54:38.490Z,23.58